sensor_id;sensor_type;location;lat;lon;timestamp;temperature;humidity
64939;DHT22;51453;47.738;7.420;2023-06-04T00:00:37;18.50;99.90
64939;DHT22;51453;47.738;7.420;2023-06-04T00:03:03;18.50;99.90
64939;DHT22;51453;47.738;7.420;2023-06-04T00:05:29;18.50;99.90
64939;DHT22;51453;47.738;7.420;2023-06-04T00:07:54;18.50;99.90
64939;DHT22;51453;47.738;7.420;2023-06-04T00:10:20;18.50;99.90
64939;DHT22;51453;47.738;7.420;2023-06-04T00:12:45;18.40;99.90
64939;DHT22;51453;47.738;7.420;2023-06-04T00:15:13;18.40;99.90
64939;DHT22;51453;47.738;7.420;2023-06-04T00:17:40;18.40;99.90
64939;DHT22;51453;47.738;7.420;2023-06-04T00:20:07;18.30;99.90
64939;DHT22;51453;47.738;7.420;2023-06-04T00:22:32;18.30;99.90
64939;DHT22;51453;47.738;7.420;2023-06-04T00:24:58;18.30;99.90
64939;DHT22;51453;47.738;7.420;2023-06-04T00:27:23;18.30;99.90
64939;DHT22;51453;47.738;7.420;2023-06-04T00:29:49;18.30;99.90
64939;DHT22;51453;47.738;7.420;2023-06-04T00:32:15;18.20;99.90
64939;DHT22;51453;47.738;7.420;2023-06-04T00:34:40;18.20;99.90
64939;DHT22;51453;47.738;7.420;2023-06-04T00:37:06;18.20;99.90
64939;DHT22;51453;47.738;7.420;2023-06-04T00:39:32;18.20;99.90
64939;DHT22;51453;47.738;7.420;2023-06-04T00:41:58;18.20;99.90
64939;DHT22;51453;47.738;7.420;2023-06-04T00:44:23;18.20;99.90
64939;DHT22;51453;47.738;7.420;2023-06-04T00:46:51;18.10;99.90
64939;DHT22;51453;47.738;7.420;2023-06-04T00:49:19;18.10;99.90
64939;DHT22;51453;47.738;7.420;2023-06-04T00:51:44;18.00;99.90
64939;DHT22;51453;47.738;7.420;2023-06-04T00:54:11;18.00;99.90
64939;DHT22;51453;47.738;7.420;2023-06-04T00:56:38;17.90;99.90
64939;DHT22;51453;47.738;7.420;2023-06-04T00:59:08;17.90;99.90
64939;DHT22;51453;47.738;7.420;2023-06-04T01:04:14;17.90;99.90
64939;DHT22;51453;47.738;7.420;2023-06-04T01:06:49;17.80;99.90
64939;DHT22;51453;47.738;7.420;2023-06-04T01:09:15;17.80;99.90
64939;DHT22;51453;47.738;7.420;2023-06-04T01:11:41;17.80;99.90
64939;DHT22;51453;47.738;7.420;2023-06-04T01:14:08;17.70;99.90
64939;DHT22;51453;47.738;7.420;2023-06-04T01:16:56;17.70;99.90
64939;DHT22;51453;47.738;7.420;2023-06-04T01:25:27;17.50;99.90
64939;DHT22;51453;47.738;7.420;2023-06-04T01:27:55;17.50;99.90
64939;DHT22;51453;47.738;7.420;2023-06-04T01:30:30;17.40;99.90
64939;DHT22;51453;47.738;7.420;2023-06-04T01:32:57;17.40;99.90
64939;DHT22;51453;47.738;7.420;2023-06-04T01:35:24;17.40;99.90
64939;DHT22;51453;47.738;7.420;2023-06-04T01:37:50;17.40;99.90
64939;DHT22;51453;47.738;7.420;2023-06-04T01:40:17;17.40;99.90
64939;DHT22;51453;47.738;7.420;2023-06-04T01:42:44;17.40;99.90
64939;DHT22;51453;47.738;7.420;2023-06-04T01:45:10;17.40;99.90
64939;DHT22;51453;47.738;7.420;2023-06-04T01:47:36;17.30;99.90
64939;DHT22;51453;47.738;7.420;2023-06-04T01:50:05;17.30;99.90
64939;DHT22;51453;47.738;7.420;2023-06-04T01:52:35;17.20;99.90
64939;DHT22;51453;47.738;7.420;2023-06-04T01:55:02;17.20;99.90
64939;DHT22;51453;47.738;7.420;2023-06-04T01:57:28;17.20;99.90
64939;DHT22;51453;47.738;7.420;2023-06-04T01:59:53;17.10;99.90
64939;DHT22;51453;47.738;7.420;2023-06-04T02:02:19;17.10;99.90
64939;DHT22;51453;47.738;7.420;2023-06-04T02:04:45;17.10;99.90
64939;DHT22;51453;47.738;7.420;2023-06-04T02:07:12;17.00;99.90
64939;DHT22;51453;47.738;7.420;2023-06-04T02:09:43;17.00;99.90
64939;DHT22;51453;47.738;7.420;2023-06-04T02:12:09;16.90;99.90
64939;DHT22;51453;47.738;7.420;2023-06-04T02:14:34;16.90;99.90
64939;DHT22;51453;47.738;7.420;2023-06-04T02:17:00;16.80;99.90
64939;DHT22;51453;47.738;7.420;2023-06-04T02:19:26;16.70;99.90
64939;DHT22;51453;47.738;7.420;2023-06-04T02:21:55;16.70;99.90
64939;DHT22;51453;47.738;7.420;2023-06-04T02:24:22;16.60;99.90
64939;DHT22;51453;47.738;7.420;2023-06-04T02:26:47;16.60;99.90
64939;DHT22;51453;47.738;7.420;2023-06-04T02:29:13;16.60;99.90
64939;DHT22;51453;47.738;7.420;2023-06-04T02:31:38;16.50;99.90
64939;DHT22;51453;47.738;7.420;2023-06-04T02:34:04;16.40;99.90
64939;DHT22;51453;47.738;7.420;2023-06-04T02:36:30;16.50;99.90
64939;DHT22;51453;47.738;7.420;2023-06-04T02:38:56;16.40;99.90
64939;DHT22;51453;47.738;7.420;2023-06-04T02:41:22;16.40;99.90
64939;DHT22;51453;47.738;7.420;2023-06-04T02:43:48;16.30;99.90
64939;DHT22;51453;47.738;7.420;2023-06-04T02:46:14;16.30;99.90
64939;DHT22;51453;47.738;7.420;2023-06-04T02:48:39;16.30;99.90
64939;DHT22;51453;47.738;7.420;2023-06-04T02:51:05;16.20;99.90
64939;DHT22;51453;47.738;7.420;2023-06-04T02:53:31;16.20;99.90
64939;DHT22;51453;47.738;7.420;2023-06-04T02:55:56;16.10;99.90
64939;DHT22;51453;47.738;7.420;2023-06-04T02:58:25;16.10;99.90
64939;DHT22;51453;47.738;7.420;2023-06-04T03:00:52;15.90;99.90
64939;DHT22;51453;47.738;7.420;2023-06-04T03:03:18;15.90;99.90
64939;DHT22;51453;47.738;7.420;2023-06-04T03:05:44;15.90;99.90
64939;DHT22;51453;47.738;7.420;2023-06-04T03:08:09;15.90;99.90
64939;DHT22;51453;47.738;7.420;2023-06-04T03:10:35;15.90;99.90
64939;DHT22;51453;47.738;7.420;2023-06-04T03:13:01;15.90;99.90
64939;DHT22;51453;47.738;7.420;2023-06-04T03:15:26;15.90;99.90
64939;DHT22;51453;47.738;7.420;2023-06-04T03:17:52;15.90;99.90
64939;DHT22;51453;47.738;7.420;2023-06-04T03:20:17;15.70;99.90
64939;DHT22;51453;47.738;7.420;2023-06-04T03:22:43;15.70;99.90
64939;DHT22;51453;47.738;7.420;2023-06-04T03:25:09;15.70;99.90
64939;DHT22;51453;47.738;7.420;2023-06-04T03:27:35;15.70;99.90
64939;DHT22;51453;47.738;7.420;2023-06-04T03:30:01;15.70;99.90
64939;DHT22;51453;47.738;7.420;2023-06-04T03:32:26;15.70;99.90
64939;DHT22;51453;47.738;7.420;2023-06-04T03:34:52;15.60;99.90
64939;DHT22;51453;47.738;7.420;2023-06-04T03:37:18;15.70;99.90
64939;DHT22;51453;47.738;7.420;2023-06-04T03:39:43;15.60;99.90
64939;DHT22;51453;47.738;7.420;2023-06-04T03:42:09;15.60;99.90
64939;DHT22;51453;47.738;7.420;2023-06-04T03:44:34;15.60;99.90
64939;DHT22;51453;47.738;7.420;2023-06-04T03:47:00;15.50;99.90
64939;DHT22;51453;47.738;7.420;2023-06-04T03:49:26;15.50;99.90
64939;DHT22;51453;47.738;7.420;2023-06-04T03:51:51;15.50;99.90
64939;DHT22;51453;47.738;7.420;2023-06-04T03:54:17;15.50;99.90
64939;DHT22;51453;47.738;7.420;2023-06-04T03:56:44;15.50;99.90
64939;DHT22;51453;47.738;7.420;2023-06-04T03:59:10;15.40;99.90
64939;DHT22;51453;47.738;7.420;2023-06-04T04:01:36;15.40;99.90
64939;DHT22;51453;47.738;7.420;2023-06-04T04:04:02;15.40;99.90
64939;DHT22;51453;47.738;7.420;2023-06-04T04:06:27;15.40;99.90
64939;DHT22;51453;47.738;7.420;2023-06-04T04:08:53;15.40;99.90
64939;DHT22;51453;47.738;7.420;2023-06-04T04:11:19;15.50;99.90
64939;DHT22;51453;47.738;7.420;2023-06-04T04:13:45;15.50;99.90
64939;DHT22;51453;47.738;7.420;2023-06-04T04:16:11;15.40;99.90
64939;DHT22;51453;47.738;7.420;2023-06-04T04:18:37;15.50;99.90
64939;DHT22;51453;47.738;7.420;2023-06-04T04:21:04;15.50;99.90
64939;DHT22;51453;47.738;7.420;2023-06-04T04:23:30;15.50;99.90
64939;DHT22;51453;47.738;7.420;2023-06-04T04:25:59;15.50;99.90
64939;DHT22;51453;47.738;7.420;2023-06-04T04:28:28;15.50;99.90
64939;DHT22;51453;47.738;7.420;2023-06-04T04:30:54;15.70;99.90
64939;DHT22;51453;47.738;7.420;2023-06-04T04:33:24;15.90;99.90
64939;DHT22;51453;47.738;7.420;2023-06-04T04:35:51;16.20;99.90
64939;DHT22;51453;47.738;7.420;2023-06-04T04:38:19;16.50;99.90
64939;DHT22;51453;47.738;7.420;2023-06-04T04:40:45;16.90;99.90
64939;DHT22;51453;47.738;7.420;2023-06-04T04:43:13;17.40;99.90
64939;DHT22;51453;47.738;7.420;2023-06-04T04:45:39;17.80;99.90
64939;DHT22;51453;47.738;7.420;2023-06-04T04:48:04;17.90;99.90
64939;DHT22;51453;47.738;7.420;2023-06-04T04:50:30;17.70;99.90
64939;DHT22;51453;47.738;7.420;2023-06-04T04:52:58;17.50;99.90
64939;DHT22;51453;47.738;7.420;2023-06-04T04:55:24;17.20;99.90
64939;DHT22;51453;47.738;7.420;2023-06-04T04:57:49;17.10;99.90
64939;DHT22;51453;47.738;7.420;2023-06-04T05:00:16;17.00;99.90
64939;DHT22;51453;47.738;7.420;2023-06-04T05:02:41;16.90;99.90
64939;DHT22;51453;47.738;7.420;2023-06-04T05:05:07;16.70;99.90
64939;DHT22;51453;47.738;7.420;2023-06-04T05:07:33;16.80;99.90
64939;DHT22;51453;47.738;7.420;2023-06-04T05:09:58;16.70;99.90
64939;DHT22;51453;47.738;7.420;2023-06-04T05:12:30;16.90;99.90
64939;DHT22;51453;47.738;7.420;2023-06-04T05:14:56;17.20;99.90
64939;DHT22;51453;47.738;7.420;2023-06-04T05:17:22;17.20;99.90
64939;DHT22;51453;47.738;7.420;2023-06-04T05:19:58;17.20;99.90
64939;DHT22;51453;47.738;7.420;2023-06-04T05:22:37;17.20;99.90
64939;DHT22;51453;47.738;7.420;2023-06-04T05:25:03;17.20;99.90
64939;DHT22;51453;47.738;7.420;2023-06-04T05:27:29;17.20;99.90
64939;DHT22;51453;47.738;7.420;2023-06-04T05:29:54;17.40;99.90
64939;DHT22;51453;47.738;7.420;2023-06-04T05:32:20;17.60;99.90
64939;DHT22;51453;47.738;7.420;2023-06-04T05:34:48;17.60;99.90
64939;DHT22;51453;47.738;7.420;2023-06-04T05:37:14;17.40;99.90
64939;DHT22;51453;47.738;7.420;2023-06-04T05:39:42;17.10;99.90
64939;DHT22;51453;47.738;7.420;2023-06-04T05:42:08;17.00;99.90
64939;DHT22;51453;47.738;7.420;2023-06-04T05:44:34;16.70;99.90
64939;DHT22;51453;47.738;7.420;2023-06-04T05:47:00;16.50;99.90
64939;DHT22;51453;47.738;7.420;2023-06-04T05:49:26;16.50;99.90
64939;DHT22;51453;47.738;7.420;2023-06-04T05:51:52;16.40;99.90
64939;DHT22;51453;47.738;7.420;2023-06-04T05:54:18;16.50;99.90
64939;DHT22;51453;47.738;7.420;2023-06-04T05:56:43;16.60;99.90
64939;DHT22;51453;47.738;7.420;2023-06-04T05:59:09;16.80;99.90
64939;DHT22;51453;47.738;7.420;2023-06-04T06:01:34;16.80;99.90
64939;DHT22;51453;47.738;7.420;2023-06-04T06:04:00;16.90;99.90
64939;DHT22;51453;47.738;7.420;2023-06-04T06:06:26;17.00;99.90
64939;DHT22;51453;47.738;7.420;2023-06-04T06:08:51;17.00;99.90
64939;DHT22;51453;47.738;7.420;2023-06-04T06:11:18;17.20;99.90
64939;DHT22;51453;47.738;7.420;2023-06-04T06:13:43;17.60;99.90
64939;DHT22;51453;47.738;7.420;2023-06-04T06:16:09;18.30;99.90
64939;DHT22;51453;47.738;7.420;2023-06-04T06:18:35;18.40;99.90
64939;DHT22;51453;47.738;7.420;2023-06-04T06:21:00;18.30;99.90
64939;DHT22;51453;47.738;7.420;2023-06-04T06:23:26;18.60;99.90
64939;DHT22;51453;47.738;7.420;2023-06-04T06:25:51;18.60;99.90
64939;DHT22;51453;47.738;7.420;2023-06-04T06:28:18;19.20;99.90
64939;DHT22;51453;47.738;7.420;2023-06-04T06:30:44;19.70;99.90
64939;DHT22;51453;47.738;7.420;2023-06-04T06:33:10;19.70;99.90
64939;DHT22;51453;47.738;7.420;2023-06-04T06:35:36;19.80;99.90
64939;DHT22;51453;47.738;7.420;2023-06-04T06:38:01;20.10;99.90
64939;DHT22;51453;47.738;7.420;2023-06-04T06:40:27;20.40;99.90
64939;DHT22;51453;47.738;7.420;2023-06-04T06:42:56;21.10;99.90
64939;DHT22;51453;47.738;7.420;2023-06-04T06:45:21;21.30;99.90
64939;DHT22;51453;47.738;7.420;2023-06-04T06:47:47;21.30;99.90
64939;DHT22;51453;47.738;7.420;2023-06-04T06:50:13;21.20;99.90
64939;DHT22;51453;47.738;7.420;2023-06-04T06:52:38;21.50;99.90
64939;DHT22;51453;47.738;7.420;2023-06-04T06:55:05;21.70;99.90
64939;DHT22;51453;47.738;7.420;2023-06-04T06:57:30;21.90;99.90
64939;DHT22;51453;47.738;7.420;2023-06-04T06:59:56;22.10;99.90
64939;DHT22;51453;47.738;7.420;2023-06-04T07:02:22;22.20;99.90
64939;DHT22;51453;47.738;7.420;2023-06-04T07:04:48;22.10;99.90
64939;DHT22;51453;47.738;7.420;2023-06-04T07:07:13;21.80;99.90
64939;DHT22;51453;47.738;7.420;2023-06-04T07:09:39;21.50;99.90
64939;DHT22;51453;47.738;7.420;2023-06-04T07:12:05;21.60;99.90
64939;DHT22;51453;47.738;7.420;2023-06-04T07:14:31;22.00;99.90
64939;DHT22;51453;47.738;7.420;2023-06-04T07:16:57;21.90;99.90
64939;DHT22;51453;47.738;7.420;2023-06-04T07:19:23;21.60;99.90
64939;DHT22;51453;47.738;7.420;2023-06-04T07:21:50;22.20;99.90
64939;DHT22;51453;47.738;7.420;2023-06-04T07:24:15;22.30;99.90
64939;DHT22;51453;47.738;7.420;2023-06-04T07:26:41;22.60;99.90
64939;DHT22;51453;47.738;7.420;2023-06-04T07:29:07;22.60;99.90
64939;DHT22;51453;47.738;7.420;2023-06-04T07:31:33;22.90;99.90
64939;DHT22;51453;47.738;7.420;2023-06-04T07:33:58;22.70;99.90
64939;DHT22;51453;47.738;7.420;2023-06-04T07:36:24;22.90;99.90
64939;DHT22;51453;47.738;7.420;2023-06-04T07:38:49;23.00;99.90
64939;DHT22;51453;47.738;7.420;2023-06-04T07:41:15;22.60;99.90
64939;DHT22;51453;47.738;7.420;2023-06-04T07:43:42;22.50;99.90
64939;DHT22;51453;47.738;7.420;2023-06-04T07:46:08;22.50;99.90
64939;DHT22;51453;47.738;7.420;2023-06-04T07:48:35;22.10;99.90
64939;DHT22;51453;47.738;7.420;2023-06-04T07:51:02;21.70;99.90
64939;DHT22;51453;47.738;7.420;2023-06-04T07:53:28;21.40;99.90
64939;DHT22;51453;47.738;7.420;2023-06-04T07:55:54;21.30;99.90
64939;DHT22;51453;47.738;7.420;2023-06-04T07:58:20;21.50;99.90
64939;DHT22;51453;47.738;7.420;2023-06-04T08:00:46;21.10;99.90
64939;DHT22;51453;47.738;7.420;2023-06-04T08:03:12;21.10;99.90
64939;DHT22;51453;47.738;7.420;2023-06-04T08:05:37;21.30;99.90
64939;DHT22;51453;47.738;7.420;2023-06-04T08:08:03;21.60;99.90
64939;DHT22;51453;47.738;7.420;2023-06-04T08:10:29;21.90;99.90
64939;DHT22;51453;47.738;7.420;2023-06-04T08:12:55;22.20;99.90
64939;DHT22;51453;47.738;7.420;2023-06-04T08:15:21;22.20;99.90
64939;DHT22;51453;47.738;7.420;2023-06-04T08:17:47;22.30;99.90
64939;DHT22;51453;47.738;7.420;2023-06-04T08:20:12;21.50;99.90
64939;DHT22;51453;47.738;7.420;2023-06-04T08:22:38;21.00;99.90
64939;DHT22;51453;47.738;7.420;2023-06-04T08:25:04;20.60;99.90
64939;DHT22;51453;47.738;7.420;2023-06-04T08:27:31;20.50;99.90
64939;DHT22;51453;47.738;7.420;2023-06-04T08:29:57;20.30;99.90
64939;DHT22;51453;47.738;7.420;2023-06-04T08:32:23;20.60;99.90
64939;DHT22;51453;47.738;7.420;2023-06-04T08:34:49;20.80;99.90
64939;DHT22;51453;47.738;7.420;2023-06-04T08:37:18;20.60;99.90
64939;DHT22;51453;47.738;7.420;2023-06-04T08:39:43;20.80;99.90
64939;DHT22;51453;47.738;7.420;2023-06-04T08:42:18;21.40;99.90
64939;DHT22;51453;47.738;7.420;2023-06-04T08:44:50;21.90;99.90
64939;DHT22;51453;47.738;7.420;2023-06-04T08:47:17;22.50;99.90
64939;DHT22;51453;47.738;7.420;2023-06-04T08:49:44;23.00;99.90
64939;DHT22;51453;47.738;7.420;2023-06-04T08:52:12;23.30;99.90
64939;DHT22;51453;47.738;7.420;2023-06-04T08:54:38;23.70;99.90
64939;DHT22;51453;47.738;7.420;2023-06-04T08:57:04;23.90;99.80
64939;DHT22;51453;47.738;7.420;2023-06-04T08:59:31;23.60;99.90
64939;DHT22;51453;47.738;7.420;2023-06-04T09:01:57;23.90;99.90
64939;DHT22;51453;47.738;7.420;2023-06-04T09:04:24;24.00;99.90
64939;DHT22;51453;47.738;7.420;2023-06-04T09:06:50;23.60;99.90
64939;DHT22;51453;47.738;7.420;2023-06-04T09:09:17;23.50;99.90
64939;DHT22;51453;47.738;7.420;2023-06-04T09:11:55;23.60;99.90
64939;DHT22;51453;47.738;7.420;2023-06-04T09:14:22;23.00;99.90
64939;DHT22;51453;47.738;7.420;2023-06-04T09:16:50;22.90;99.90
64939;DHT22;51453;47.738;7.420;2023-06-04T09:19:17;23.30;99.90
64939;DHT22;51453;47.738;7.420;2023-06-04T09:21:57;23.30;99.90
64939;DHT22;51453;47.738;7.420;2023-06-04T09:24:25;23.50;99.90
64939;DHT22;51453;47.738;7.420;2023-06-04T09:26:51;23.50;99.90
64939;DHT22;51453;47.738;7.420;2023-06-04T09:29:17;23.20;99.90
64939;DHT22;51453;47.738;7.420;2023-06-04T09:31:56;23.00;99.90
64939;DHT22;51453;47.738;7.420;2023-06-04T09:34:29;23.10;99.90
64939;DHT22;51453;47.738;7.420;2023-06-04T09:36:58;23.20;99.90
64939;DHT22;51453;47.738;7.420;2023-06-04T09:39:24;23.20;99.90
64939;DHT22;51453;47.738;7.420;2023-06-04T09:42:00;23.10;99.90
64939;DHT22;51453;47.738;7.420;2023-06-04T09:44:26;23.00;99.90
64939;DHT22;51453;47.738;7.420;2023-06-04T09:46:56;23.30;99.90
64939;DHT22;51453;47.738;7.420;2023-06-04T09:49:22;23.50;99.90
64939;DHT22;51453;47.738;7.420;2023-06-04T09:51:48;23.50;99.90
64939;DHT22;51453;47.738;7.420;2023-06-04T09:54:15;23.60;99.90
64939;DHT22;51453;47.738;7.420;2023-06-04T09:56:42;23.50;99.90
64939;DHT22;51453;47.738;7.420;2023-06-04T09:59:09;23.60;99.90
64939;DHT22;51453;47.738;7.420;2023-06-04T10:01:39;23.80;99.90
64939;DHT22;51453;47.738;7.420;2023-06-04T10:04:08;23.90;99.90
64939;DHT22;51453;47.738;7.420;2023-06-04T10:06:35;23.70;99.90
64939;DHT22;51453;47.738;7.420;2023-06-04T10:09:05;24.00;99.90
64939;DHT22;51453;47.738;7.420;2023-06-04T10:11:39;24.40;99.90
64939;DHT22;51453;47.738;7.420;2023-06-04T10:14:30;24.30;99.90
64939;DHT22;51453;47.738;7.420;2023-06-04T10:16:59;24.00;99.90
64939;DHT22;51453;47.738;7.420;2023-06-04T10:19:27;24.00;99.90
64939;DHT22;51453;47.738;7.420;2023-06-04T10:21:53;24.20;99.90
64939;DHT22;51453;47.738;7.420;2023-06-04T10:24:19;23.90;99.90
64939;DHT22;51453;47.738;7.420;2023-06-04T10:26:47;24.30;99.90
64939;DHT22;51453;47.738;7.420;2023-06-04T10:29:14;24.30;99.90
64939;DHT22;51453;47.738;7.420;2023-06-04T10:31:40;24.40;99.90
64939;DHT22;51453;47.738;7.420;2023-06-04T10:34:07;24.70;99.90
64939;DHT22;51453;47.738;7.420;2023-06-04T10:36:42;24.40;99.90
64939;DHT22;51453;47.738;7.420;2023-06-04T10:39:08;24.30;99.90
64939;DHT22;51453;47.738;7.420;2023-06-04T10:41:34;24.40;99.90
64939;DHT22;51453;47.738;7.420;2023-06-04T10:44:01;24.50;99.90
64939;DHT22;51453;47.738;7.420;2023-06-04T10:46:40;24.50;99.90
64939;DHT22;51453;47.738;7.420;2023-06-04T10:49:10;24.70;99.90
64939;DHT22;51453;47.738;7.420;2023-06-04T10:51:37;24.50;99.90
64939;DHT22;51453;47.738;7.420;2023-06-04T10:54:03;24.60;99.90
64939;DHT22;51453;47.738;7.420;2023-06-04T10:56:31;24.60;99.90
64939;DHT22;51453;47.738;7.420;2023-06-04T10:59:14;24.70;99.90
64939;DHT22;51453;47.738;7.420;2023-06-04T11:01:40;24.50;99.90
64939;DHT22;51453;47.738;7.420;2023-06-04T11:04:05;24.70;99.90
64939;DHT22;51453;47.738;7.420;2023-06-04T11:06:31;24.50;99.90
64939;DHT22;51453;47.738;7.420;2023-06-04T11:09:04;24.40;99.90
64939;DHT22;51453;47.738;7.420;2023-06-04T11:11:34;24.80;99.90
64939;DHT22;51453;47.738;7.420;2023-06-04T11:14:12;24.90;99.90
64939;DHT22;51453;47.738;7.420;2023-06-04T11:16:43;24.60;99.90
64939;DHT22;51453;47.738;7.420;2023-06-04T11:19:09;24.30;99.90
64939;DHT22;51453;47.738;7.420;2023-06-04T11:21:35;24.30;99.90
64939;DHT22;51453;47.738;7.420;2023-06-04T11:24:04;24.50;99.90
64939;DHT22;51453;47.738;7.420;2023-06-04T11:26:38;24.10;99.90
64939;DHT22;51453;47.738;7.420;2023-06-04T11:29:10;24.30;99.90
64939;DHT22;51453;47.738;7.420;2023-06-04T11:31:47;24.30;99.90
64939;DHT22;51453;47.738;7.420;2023-06-04T11:36:48;24.10;99.90
64939;DHT22;51453;47.738;7.420;2023-06-04T11:39:15;24.10;99.90
64939;DHT22;51453;47.738;7.420;2023-06-04T11:41:41;24.50;99.90
64939;DHT22;51453;47.738;7.420;2023-06-04T11:44:08;24.40;99.90
64939;DHT22;51453;47.738;7.420;2023-06-04T11:46:34;24.60;99.90
64939;DHT22;51453;47.738;7.420;2023-06-04T11:49:02;24.80;99.90
64939;DHT22;51453;47.738;7.420;2023-06-04T11:51:28;24.70;99.90
64939;DHT22;51453;47.738;7.420;2023-06-04T11:53:54;24.80;99.90
64939;DHT22;51453;47.738;7.420;2023-06-04T11:56:21;24.90;99.90
64939;DHT22;51453;47.738;7.420;2023-06-04T11:58:49;25.20;99.90
64939;DHT22;51453;47.738;7.420;2023-06-04T12:01:15;25.20;99.90
64939;DHT22;51453;47.738;7.420;2023-06-04T12:03:41;25.40;99.90
64939;DHT22;51453;47.738;7.420;2023-06-04T12:06:11;25.40;99.90
64939;DHT22;51453;47.738;7.420;2023-06-04T12:08:55;25.40;99.90
64939;DHT22;51453;47.738;7.420;2023-06-04T12:13:54;25.40;99.90
64939;DHT22;51453;47.738;7.420;2023-06-04T12:16:20;25.20;99.90
64939;DHT22;51453;47.738;7.420;2023-06-04T12:18:46;24.90;99.90
64939;DHT22;51453;47.738;7.420;2023-06-04T12:23:45;24.90;99.90
64939;DHT22;51453;47.738;7.420;2023-06-04T12:26:23;24.90;99.90
64939;DHT22;51453;47.738;7.420;2023-06-04T12:29:01;24.90;99.90
64939;DHT22;51453;47.738;7.420;2023-06-04T12:31:27;25.00;99.90
64939;DHT22;51453;47.738;7.420;2023-06-04T12:34:00;25.40;99.90
64939;DHT22;51453;47.738;7.420;2023-06-04T12:36:26;25.30;99.90
64939;DHT22;51453;47.738;7.420;2023-06-04T12:38:57;25.20;99.90
64939;DHT22;51453;47.738;7.420;2023-06-04T12:41:23;25.30;99.90
64939;DHT22;51453;47.738;7.420;2023-06-04T12:43:48;25.50;99.90
64939;DHT22;51453;47.738;7.420;2023-06-04T12:46:14;25.60;99.90
64939;DHT22;51453;47.738;7.420;2023-06-04T12:48:40;25.70;99.90
64939;DHT22;51453;47.738;7.420;2023-06-04T12:51:08;25.90;99.90
64939;DHT22;51453;47.738;7.420;2023-06-04T12:53:38;25.70;99.50
64939;DHT22;51453;47.738;7.420;2023-06-04T12:56:04;25.60;99.90
64939;DHT22;51453;47.738;7.420;2023-06-04T12:58:30;25.80;99.70
64939;DHT22;51453;47.738;7.420;2023-06-04T13:00:55;25.80;99.20
64939;DHT22;51453;47.738;7.420;2023-06-04T13:03:21;25.70;99.90
64939;DHT22;51453;47.738;7.420;2023-06-04T13:05:46;26.00;99.90
64939;DHT22;51453;47.738;7.420;2023-06-04T13:08:12;25.90;98.80
64939;DHT22;51453;47.738;7.420;2023-06-04T13:10:38;25.90;99.30
64939;DHT22;51453;47.738;7.420;2023-06-04T13:13:03;26.00;99.50
64939;DHT22;51453;47.738;7.420;2023-06-04T13:15:29;25.80;97.70
64939;DHT22;51453;47.738;7.420;2023-06-04T13:17:55;25.80;98.00
64939;DHT22;51453;47.738;7.420;2023-06-04T13:20:20;25.80;99.20
64939;DHT22;51453;47.738;7.420;2023-06-04T13:22:46;25.70;98.30
64939;DHT22;51453;47.738;7.420;2023-06-04T13:25:12;25.90;99.90
64939;DHT22;51453;47.738;7.420;2023-06-04T13:27:38;26.20;98.50
64939;DHT22;51453;47.738;7.420;2023-06-04T13:30:05;26.50;97.70
64939;DHT22;51453;47.738;7.420;2023-06-04T13:32:31;26.50;96.60
64939;DHT22;51453;47.738;7.420;2023-06-04T13:34:56;26.70;96.50
64939;DHT22;51453;47.738;7.420;2023-06-04T13:37:22;26.80;97.30
64939;DHT22;51453;47.738;7.420;2023-06-04T13:39:48;26.80;96.00
64939;DHT22;51453;47.738;7.420;2023-06-04T13:42:14;27.10;96.40
64939;DHT22;51453;47.738;7.420;2023-06-04T13:44:39;27.10;96.50
64939;DHT22;51453;47.738;7.420;2023-06-04T13:47:05;27.10;96.70
64939;DHT22;51453;47.738;7.420;2023-06-04T13:49:34;26.70;96.80
64939;DHT22;51453;47.738;7.420;2023-06-04T13:52:00;26.90;96.40
64939;DHT22;51453;47.738;7.420;2023-06-04T13:54:26;26.90;97.60
64939;DHT22;51453;47.738;7.420;2023-06-04T13:56:51;26.90;96.90
64939;DHT22;51453;47.738;7.420;2023-06-04T13:59:17;26.60;96.60
64939;DHT22;51453;47.738;7.420;2023-06-04T14:01:43;26.20;96.70
64939;DHT22;51453;47.738;7.420;2023-06-04T14:04:08;25.90;97.60
64939;DHT22;51453;47.738;7.420;2023-06-04T14:06:36;26.10;99.40
64939;DHT22;51453;47.738;7.420;2023-06-04T14:09:03;25.90;97.80
64939;DHT22;51453;47.738;7.420;2023-06-04T14:11:29;25.90;97.70
64939;DHT22;51453;47.738;7.420;2023-06-04T14:13:55;26.10;97.90
64939;DHT22;51453;47.738;7.420;2023-06-04T14:16:21;26.40;97.20
64939;DHT22;51453;47.738;7.420;2023-06-04T14:18:47;26.70;98.00
64939;DHT22;51453;47.738;7.420;2023-06-04T14:21:12;26.50;96.30
64939;DHT22;51453;47.738;7.420;2023-06-04T14:23:38;26.50;97.10
64939;DHT22;51453;47.738;7.420;2023-06-04T14:26:04;26.40;96.30
64939;DHT22;51453;47.738;7.420;2023-06-04T14:28:29;26.50;97.60
64939;DHT22;51453;47.738;7.420;2023-06-04T14:30:55;26.60;97.10
64939;DHT22;51453;47.738;7.420;2023-06-04T14:33:21;26.40;97.50
64939;DHT22;51453;47.738;7.420;2023-06-04T14:35:47;26.50;96.90
64939;DHT22;51453;47.738;7.420;2023-06-04T14:38:14;26.70;97.10
64939;DHT22;51453;47.738;7.420;2023-06-04T14:40:39;26.60;98.00
64939;DHT22;51453;47.738;7.420;2023-06-04T14:43:07;26.60;96.60
64939;DHT22;51453;47.738;7.420;2023-06-04T14:45:33;26.60;97.20
64939;DHT22;51453;47.738;7.420;2023-06-04T14:47:58;26.80;97.30
64939;DHT22;51453;47.738;7.420;2023-06-04T14:50:24;27.00;96.70
64939;DHT22;51453;47.738;7.420;2023-06-04T14:52:50;27.20;97.30
64939;DHT22;51453;47.738;7.420;2023-06-04T14:55:15;27.40;96.50
64939;DHT22;51453;47.738;7.420;2023-06-04T14:57:41;27.50;95.90
64939;DHT22;51453;47.738;7.420;2023-06-04T15:00:07;27.70;96.30
64939;DHT22;51453;47.738;7.420;2023-06-04T15:02:33;27.70;96.30
64939;DHT22;51453;47.738;7.420;2023-06-04T15:04:58;27.60;95.70
64939;DHT22;51453;47.738;7.420;2023-06-04T15:07:24;27.10;96.10
64939;DHT22;51453;47.738;7.420;2023-06-04T15:09:50;27.10;97.00
64939;DHT22;51453;47.738;7.420;2023-06-04T15:12:16;27.30;96.80
64939;DHT22;51453;47.738;7.420;2023-06-04T15:14:43;27.30;97.20
64939;DHT22;51453;47.738;7.420;2023-06-04T15:17:09;27.40;96.10
64939;DHT22;51453;47.738;7.420;2023-06-04T15:19:35;27.60;96.30
64939;DHT22;51453;47.738;7.420;2023-06-04T15:22:00;27.40;95.80
64939;DHT22;51453;47.738;7.420;2023-06-04T15:24:26;27.30;95.30
64939;DHT22;51453;47.738;7.420;2023-06-04T15:26:51;27.00;94.70
64939;DHT22;51453;47.738;7.420;2023-06-04T15:29:17;26.80;95.10
64939;DHT22;51453;47.738;7.420;2023-06-04T15:31:43;26.80;95.20
64939;DHT22;51453;47.738;7.420;2023-06-04T15:34:08;27.10;95.30
64939;DHT22;51453;47.738;7.420;2023-06-04T15:36:34;27.20;95.00
64939;DHT22;51453;47.738;7.420;2023-06-04T15:39:00;27.10;95.80
64939;DHT22;51453;47.738;7.420;2023-06-04T15:41:25;27.20;95.40
64939;DHT22;51453;47.738;7.420;2023-06-04T15:43:51;27.30;95.20